Time;durP1;ratioP1;P1;durP2;ratioP2;P2;SDS_P1;SDS_P2;PMS_P1;PMS_P2;Temp;Humidity;BMP_temperature;BMP_pressure;BME280_temperature;BME280_humidity;BME280_pressure;Samples;Min_cycle;Max_cycle;Signal;HPM_P1;HPM_P2
2023/07/06 00:01:41;;;;;;;3.92;2.72;;;;;;;;;;5040294;28;20041;-68
2023/07/06 00:04:07;;;;;;;6.10;2.78;;;;;;;;;;5024676;28;20159;-68
2023/07/06 00:06:33;;;;;;;4.30;2.38;;;;;;;;;;5029548;28;20479;-68
2023/07/06 00:09:00;;;;;;;11.15;3.85;;;;;;;;;;5022823;28;20096;-68
2023/07/06 00:11:28;;;;;;;5.57;3.13;;;;;;;;;;5034135;28;20042;-68
2023/07/06 00:13:54;;;;;;;3.78;2.40;;;;;;;;;;5020161;28;20149;-66
2023/07/06 00:16:21;;;;;;;6.57;2.50;;;;;;;;;;5027724;28;20045;-66
2023/07/06 00:18:47;;;;;;;9.00;3.50;;;;;;;;;;5036900;28;20487;-67
2023/07/06 00:21:13;;;;;;;5.18;2.78;;;;;;;;;;5029241;28;20098;-66
2023/07/06 00:23:43;;;;;;;4.38;2.15;;;;;;;;;;5027499;28;20085;-66
2023/07/06 00:26:09;;;;;;;3.97;2.65;;;;;;;;;;5025228;28;20366;-66
2023/07/06 00:28:36;;;;;;;9.82;2.90;;;;;;;;;;5020575;28;20123;-67
2023/07/06 00:31:08;;;;;;;3.92;2.75;;;;;;;;;;5022424;28;20045;-66
2023/07/06 00:33:34;;;;;;;3.67;2.58;;;;;;;;;;5035783;28;20033;-66
2023/07/06 00:36:03;;;;;;;3.80;2.10;;;;;;;;;;5023620;28;20038;-66
2023/07/06 00:38:29;;;;;;;5.43;3.47;;;;;;;;;;5021487;28;20060;-66
2023/07/06 00:40:57;;;;;;;3.63;2.85;;;;;;;;;;5026460;28;20092;-67
2023/07/06 00:43:25;;;;;;;7.53;3.53;;;;;;;;;;5020895;28;20029;-66
2023/07/06 00:45:53;;;;;;;6.30;3.22;;;;;;;;;;5022277;28;20056;-66
2023/07/06 00:48:32;;;;;;;5.25;2.95;;;;;;;;;;5035617;28;20739;-66
2023/07/06 00:51:09;;;;;;;6.70;4.47;;;;;;;;;;5022669;28;20034;-66
2023/07/06 00:53:38;;;;;;;6.20;2.88;;;;;;;;;;5022329;28;20047;-66
2023/07/06 00:56:05;;;;;;;7.47;2.95;;;;;;;;;;5026890;28;20060;-66
2023/07/06 00:58:37;;;;;;;6.28;3.35;;;;;;;;;;5028203;28;20528;-66
2023/07/06 01:01:04;;;;;;;5.00;3.17;;;;;;;;;;5025716;28;20041;-67
2023/07/06 01:03:32;;;;;;;5.53;2.95;;;;;;;;;;5028739;28;20432;-66
2023/07/06 01:06:00;;;;;;;4.32;2.47;;;;;;;;;;5033198;28;20103;-66
2023/07/06 01:08:27;;;;;;;4.93;2.78;;;;;;;;;;5040505;28;20072;-66
2023/07/06 01:10:54;;;;;;;7.15;3.38;;;;;;;;;;5023021;28;20487;-66
2023/07/06 01:13:26;;;;;;;4.90;2.47;;;;;;;;;;5036184;28;20048;-66
2023/07/06 01:16:12;;;;;;;4.32;2.80;;;;;;;;;;5025971;28;20065;-66
2023/07/06 01:18:42;;;;;;;4.28;2.30;;;;;;;;;;5020343;28;20048;-66
2023/07/06 01:21:23;;;;;;;3.50;2.65;;;;;;;;;;5027939;28;20042;-67
2023/07/06 01:23:49;;;;;;;7.57;2.80;;;;;;;;;;5022617;28;20099;-66
2023/07/06 01:26:25;;;;;;;5.07;2.85;;;;;;;;;;5028804;28;20450;-66
2023/07/06 01:28:53;;;;;;;4.65;2.88;;;;;;;;;;5020555;28;20689;-66
2023/07/06 01:31:22;;;;;;;4.55;2.95;;;;;;;;;;5023958;28;20475;-67
2023/07/06 01:33:54;;;;;;;6.47;3.28;;;;;;;;;;5024363;28;20868;-67
2023/07/06 01:36:23;;;;;;;3.95;2.67;;;;;;;;;;5022688;28;20041;-66
2023/07/06 01:38:49;;;;;;;6.88;2.90;;;;;;;;;;5022977;28;20038;-66
2023/07/06 01:41:26;;;;;;;6.03;2.63;;;;;;;;;;5025983;28;20062;-66
2023/07/06 01:43:52;;;;;;;5.43;2.40;;;;;;;;;;5015592;28;20064;-67
2023/07/06 01:46:19;;;;;;;8.63;3.05;;;;;;;;;;5036319;28;20060;-66
2023/07/06 01:48:45;;;;;;;5.28;2.25;;;;;;;;;;5022084;28;20037;-66
2023/07/06 01:51:20;;;;;;;4.75;2.38;;;;;;;;;;5027103;28;20037;-66
2023/07/06 01:54:00;;;;;;;6.15;2.22;;;;;;;;;;5035895;28;20060;-66
2023/07/06 01:56:32;;;;;;;5.70;2.78;;;;;;;;;;5025298;28;20436;-66
2023/07/06 01:59:04;;;;;;;4.35;3.05;;;;;;;;;;5042574;28;20103;-67
2023/07/06 02:01:50;;;;;;;4.50;2.60;;;;;;;;;;5038949;28;20065;-66
2023/07/06 02:04:20;;;;;;;4.78;2.03;;;;;;;;;;5026231;28;20444;-66
2023/07/06 02:06:47;;;;;;;4.70;2.40;;;;;;;;;;5041604;28;20044;-68
2023/07/06 02:09:18;;;;;;;4.15;2.33;;;;;;;;;;5028146;28;20060;-66
2023/07/06 02:11:45;;;;;;;4.13;2.83;;;;;;;;;;5024904;28;20091;-66
2023/07/06 02:14:11;;;;;;;6.07;2.85;;;;;;;;;;5015511;28;20419;-66
2023/07/06 02:16:37;;;;;;;4.10;2.80;;;;;;;;;;5029813;28;20085;-66
2023/07/06 02:19:03;;;;;;;5.57;3.13;;;;;;;;;;5026709;28;20041;-66
2023/07/06 02:21:32;;;;;;;3.85;2.53;;;;;;;;;;5040307;28;20041;-66
2023/07/06 02:23:58;;;;;;;3.92;2.60;;;;;;;;;;5025223;28;20037;-66
2023/07/06 02:26:25;;;;;;;7.15;2.40;;;;;;;;;;5027452;28;20037;-66
2023/07/06 02:28:52;;;;;;;5.20;2.58;;;;;;;;;;5025537;28;20088;-67
2023/07/06 02:31:18;;;;;;;3.35;2.22;;;;;;;;;;5041467;28;20052;-66
2023/07/06 02:33:45;;;;;;;7.20;2.95;;;;;;;;;;5025635;28;20463;-66
2023/07/06 02:36:11;;;;;;;4.18;2.70;;;;;;;;;;5028006;28;20042;-66
2023/07/06 02:38:37;;;;;;;3.47;2.20;;;;;;;;;;5020573;28;20048;-66
2023/07/06 02:41:04;;;;;;;3.78;2.83;;;;;;;;;;5024784;28;20056;-66
2023/07/06 02:43:30;;;;;;;4.90;3.15;;;;;;;;;;5028071;28;20048;-66
2023/07/06 02:45:57;;;;;;;3.45;2.33;;;;;;;;;;5044039;28;20033;-66
2023/07/06 02:48:24;;;;;;;3.13;2.40;;;;;;;;;;5029670;28;20072;-66
2023/07/06 02:50:51;;;;;;;4.32;2.47;;;;;;;;;;5039866;28;20045;-66
2023/07/06 02:53:17;;;;;;;3.33;2.22;;;;;;;;;;5041981;28;20044;-66
2023/07/06 02:55:47;;;;;;;4.05;2.53;;;;;;;;;;5030754;28;20503;-66
2023/07/06 02:58:13;;;;;;;4.50;2.55;;;;;;;;;;5019153;28;20121;-67
2023/07/06 03:00:39;;;;;;;5.32;3.22;;;;;;;;;;5027241;28;20044;-66
2023/07/06 03:03:07;;;;;;;3.28;2.08;;;;;;;;;;5031683;28;20163;-67
2023/07/06 03:05:35;;;;;;;4.70;2.70;;;;;;;;;;5027578;28;20044;-66
2023/07/06 03:08:02;;;;;;;4.75;2.67;;;;;;;;;;5025731;28;20060;-66
2023/07/06 03:10:28;;;;;;;5.25;2.53;;;;;;;;;;5022215;28;20079;-66
2023/07/06 03:12:54;;;;;;;5.28;2.42;;;;;;;;;;5030458;28;20041;-66
2023/07/06 03:15:21;;;;;;;4.63;2.80;;;;;;;;;;5037546;28;20065;-66
2023/07/06 03:17:51;;;;;;;3.75;2.70;;;;;;;;;;5036302;28;20076;-66
2023/07/06 03:20:21;;;;;;;6.53;3.00;;;;;;;;;;5023169;28;20053;-66
2023/07/06 03:22:48;;;;;;;6.25;3.20;;;;;;;;;;5040652;28;20044;-66
2023/07/06 03:25:25;;;;;;;5.03;3.42;;;;;;;;;;5023429;28;20042;-66
2023/07/06 03:27:51;;;;;;;4.47;3.25;;;;;;;;;;5035750;28;20530;-66
2023/07/06 03:30:20;;;;;;;6.53;3.35;;;;;;;;;;5028808;28;20160;-66
2023/07/06 03:32:46;;;;;;;7.88;3.15;;;;;;;;;;5028639;28;20050;-66
2023/07/06 03:35:13;;;;;;;4.05;3.38;;;;;;;;;;5025642;28;20175;-66
2023/07/06 03:37:42;;;;;;;4.57;3.30;;;;;;;;;;5027832;28;20476;-66
2023/07/06 03:40:13;;;;;;;5.28;2.85;;;;;;;;;;5026422;28;20073;-66
2023/07/06 03:42:40;;;;;;;4.63;3.72;;;;;;;;;;5020898;28;20484;-66
2023/07/06 03:45:07;;;;;;;4.10;2.97;;;;;;;;;;5025386;28;20487;-66
2023/07/06 03:47:33;;;;;;;6.35;2.95;;;;;;;;;;5026705;28;20047;-66
2023/07/06 03:50:00;;;;;;;4.25;3.35;;;;;;;;;;5028509;28;20048;-67
2023/07/06 03:52:28;;;;;;;6.18;3.35;;;;;;;;;;5028673;28;20049;-66
2023/07/06 03:54:55;;;;;;;6.43;4.20;;;;;;;;;;5028444;28;20033;-66
2023/07/06 03:57:23;;;;;;;6.32;3.33;;;;;;;;;;5023396;28;20144;-67
2023/07/06 03:59:50;;;;;;;5.28;4.20;;;;;;;;;;5031537;28;20601;-66
2023/07/06 04:02:16;;;;;;;6.25;3.92;;;;;;;;;;5020781;28;20124;-66
2023/07/06 04:04:42;;;;;;;4.97;3.53;;;;;;;;;;5025784;28;20586;-67
2023/07/06 04:07:10;;;;;;;4.72;3.80;;;;;;;;;;5026166;28;20056;-66
2023/07/06 04:09:36;;;;;;;6.43;3.97;;;;;;;;;;5029906;28;20045;-67
2023/07/06 04:12:05;;;;;;;5.53;4.30;;;;;;;;;;5026396;28;20506;-67
2023/07/06 04:14:31;;;;;;;6.80;3.80;;;;;;;;;;5023798;28;20415;-66
2023/07/06 04:16:57;;;;;;;9.15;4.38;;;;;;;;;;5025761;28;20524;-66
2023/07/06 04:19:24;;;;;;;7.57;3.65;;;;;;;;;;5027123;28;20088;-66
2023/07/06 04:21:51;;;;;;;5.65;3.67;;;;;;;;;;5025912;28;20049;-66
2023/07/06 04:24:17;;;;;;;6.63;3.83;;;;;;;;;;5024971;28;20037;-66
2023/07/06 04:26:47;;;;;;;9.65;3.88;;;;;;;;;;5024856;28;21331;-67
2023/07/06 04:29:14;;;;;;;6.38;4.45;;;;;;;;;;5019574;28;20049;-68
2023/07/06 04:31:41;;;;;;;6.75;4.10;;;;;;;;;;5033546;28;20191;-66
2023/07/06 04:34:07;;;;;;;8.50;4.05;;;;;;;;;;5021097;28;20455;-66
2023/07/06 04:36:34;;;;;;;8.95;4.65;;;;;;;;;;5016083;28;20071;-66
2023/07/06 04:39:00;;;;;;;6.45;3.53;;;;;;;;;;5026549;28;20033;-66
2023/07/06 04:41:27;;;;;;;6.80;4.45;;;;;;;;;;5021708;28;20039;-66
2023/07/06 04:43:53;;;;;;;6.55;4.43;;;;;;;;;;5027321;28;20430;-66
2023/07/06 04:46:23;;;;;;;7.32;4.50;;;;;;;;;;5029379;28;20098;-67
2023/07/06 04:48:49;;;;;;;8.38;4.28;;;;;;;;;;5020644;28;20038;-66
2023/07/06 04:51:17;;;;;;;6.65;3.85;;;;;;;;;;5020875;28;20057;-67
2023/07/06 04:53:43;;;;;;;8.63;5.25;;;;;;;;;;5018762;28;20088;-67
2023/07/06 04:56:09;;;;;;;8.18;4.65;;;;;;;;;;5027885;28;20045;-66
2023/07/06 04:58:37;;;;;;;10.48;5.13;;;;;;;;;;5025773;28;20544;-67
2023/07/06 05:01:06;;;;;;;8.57;4.60;;;;;;;;;;5018711;28;20041;-66
2023/07/06 05:03:33;;;;;;;10.20;5.13;;;;;;;;;;5020614;28;20030;-67
2023/07/06 05:06:04;;;;;;;11.88;5.63;;;;;;;;;;5026929;28;20045;-66
2023/07/06 05:08:33;;;;;;;7.88;4.70;;;;;;;;;;5018072;28;20483;-67
2023/07/06 05:11:04;;;;;;;11.85;5.20;;;;;;;;;;5022406;28;20044;-67
2023/07/06 05:13:31;;;;;;;8.68;5.53;;;;;;;;;;5035412;28;20095;-66
2023/07/06 05:15:57;;;;;;;11.88;4.88;;;;;;;;;;5021635;28;20145;-66
2023/07/06 05:18:23;;;;;;;13.70;5.43;;;;;;;;;;5032611;28;20037;-66
2023/07/06 05:20:50;;;;;;;11.68;6.05;;;;;;;;;;5018079;28;20034;-67
2023/07/06 05:23:17;;;;;;;8.02;5.20;;;;;;;;;;5020828;28;20052;-66
2023/07/06 05:25:44;;;;;;;11.48;5.47;;;;;;;;;;5034262;28;20042;-67
2023/07/06 05:28:13;;;;;;;12.05;6.80;;;;;;;;;;5000810;28;20048;-67
2023/07/06 05:30:40;;;;;;;10.75;6.93;;;;;;;;;;5018126;28;20104;-67
2023/07/06 05:33:06;;;;;;;13.38;7.20;;;;;;;;;;5023418;28;20041;-67
2023/07/06 05:35:32;;;;;;;8.82;5.28;;;;;;;;;;5024106;28;20071;-66
2023/07/06 05:38:00;;;;;;;11.73;6.97;;;;;;;;;;5021002;28;20382;-67
2023/07/06 05:40:26;;;;;;;9.63;5.30;;;;;;;;;;5024428;28;20053;-67
2023/07/06 05:42:54;;;;;;;9.93;5.60;;;;;;;;;;5021722;28;20065;-66
2023/07/06 05:45:20;;;;;;;11.40;5.72;;;;;;;;;;5024914;28;20045;-67
2023/07/06 05:47:46;;;;;;;8.93;5.72;;;;;;;;;;5026308;28;20545;-67
2023/07/06 05:50:13;;;;;;;11.15;5.70;;;;;;;;;;5027539;28;20122;-67
2023/07/06 05:52:40;;;;;;;13.35;5.53;;;;;;;;;;5025380;28;20129;-66
2023/07/06 05:55:07;;;;;;;15.93;6.30;;;;;;;;;;5017529;28;20056;-67
2023/07/06 05:57:33;;;;;;;16.65;5.75;;;;;;;;;;5025868;28;20055;-67
2023/07/06 05:59:59;;;;;;;11.82;5.80;;;;;;;;;;5030460;28;20079;-67
2023/07/06 06:02:26;;;;;;;9.00;5.05;;;;;;;;;;5024815;28;20081;-66
2023/07/06 06:04:52;;;;;;;12.02;6.13;;;;;;;;;;5024927;28;20691;-67
2023/07/06 06:07:19;;;;;;;8.00;5.00;;;;;;;;;;5040178;28;20045;-67
2023/07/06 06:09:47;;;;;;;10.40;4.90;;;;;;;;;;5043050;28;20153;-67
2023/07/06 06:12:18;;;;;;;15.70;6.93;;;;;;;;;;5021604;28;20048;-67
2023/07/06 06:14:48;;;;;;;12.13;6.28;;;;;;;;;;5041579;28;20049;-67
2023/07/06 06:17:15;;;;;;;11.15;6.50;;;;;;;;;;5014606;28;20803;-67
2023/07/06 06:19:42;;;;;;;13.35;6.68;;;;;;;;;;5027744;28;20036;-67
2023/07/06 06:22:11;;;;;;;7.47;5.30;;;;;;;;;;5027281;28;20168;-66
2023/07/06 06:24:37;;;;;;;12.30;6.45;;;;;;;;;;5028837;28;20121;-67
2023/07/06 06:27:04;;;;;;;11.65;6.57;;;;;;;;;;5023150;28;20048;-67
2023/07/06 06:29:30;;;;;;;19.38;6.40;;;;;;;;;;5027404;28;20041;-67
2023/07/06 06:31:56;;;;;;;13.13;5.88;;;;;;;;;;5026716;28;20109;-67
2023/07/06 06:34:23;;;;;;;15.80;5.95;;;;;;;;;;5042905;28;20048;-67
2023/07/06 06:36:49;;;;;;;10.18;5.35;;;;;;;;;;5028367;28;20120;-66
2023/07/06 06:39:15;;;;;;;10.77;5.40;;;;;;;;;;5030717;28;20049;-67
2023/07/06 06:41:43;;;;;;;15.48;6.55;;;;;;;;;;5026343;28;20506;-67
2023/07/06 06:44:14;;;;;;;11.95;6.22;;;;;;;;;;5038340;28;20033;-67
2023/07/06 06:46:40;;;;;;;11.73;6.30;;;;;;;;;;5025621;28;20467;-67
2023/07/06 06:49:07;;;;;;;16.50;6.75;;;;;;;;;;5030730;28;20224;-66
2023/07/06 06:51:33;;;;;;;14.77;5.43;;;;;;;;;;5021546;28;20056;-67
2023/07/06 06:53:59;;;;;;;13.00;5.13;;;;;;;;;;5038957;28;20045;-67
2023/07/06 06:56:26;;;;;;;8.25;4.20;;;;;;;;;;5028755;28;20037;-67
2023/07/06 06:58:52;;;;;;;7.72;4.43;;;;;;;;;;5042333;28;20482;-67
2023/07/06 07:01:19;;;;;;;11.52;4.05;;;;;;;;;;5027206;28;20034;-67
2023/07/06 07:03:45;;;;;;;9.15;3.90;;;;;;;;;;5026283;28;20367;-67
2023/07/06 07:06:12;;;;;;;9.48;4.15;;;16.80;98.50;;;;;;5023874;28;20116;-67
2023/07/06 07:08:53;;;;;;;7.25;3.92;;;16.90;99.90;;;;;;5026843;28;20052;-66
2023/07/06 07:11:20;;;;;;;11.60;4.75;;;16.90;99.90;;;;;;5026573;28;20136;-66
2023/07/06 07:13:51;;;;;;;12.82;4.18;;;17.00;99.90;;;;;;5028783;28;20640;-67
2023/07/06 07:16:17;;;;;;;8.77;3.38;;;17.00;99.90;;;;;;5029613;28;20052;-66
2023/07/06 07:18:44;;;;;;;5.50;3.30;;;;;;;;;;5034725;28;20034;-67
2023/07/06 07:21:12;;;;;;;9.52;2.80;;;;;;;;;;5027019;28;20033;-66
2023/07/06 07:23:45;;;;;;;4.65;2.67;;;;;;;;;;5022393;28;20039;-67
2023/07/06 07:26:13;;;;;;;6.25;3.00;;;;;;;;;;5027251;28;20041;-66
2023/07/06 07:28:40;;;;;;;5.85;2.83;;;;;;;;;;5026761;28;20042;-66
2023/07/06 07:31:11;;;;;;;8.90;2.50;;;;;;;;;;5031142;28;20734;-67
2023/07/06 07:33:43;;;;;;;5.30;2.50;;;;;;;;;;5028876;28;20040;-66
2023/07/06 07:36:09;;;;;;;;;;;;;;;;;;5039338;28;20057;-67
2023/07/06 07:38:36;;;;;;;4.57;2.40;;;;;;;;;;5026623;28;20024;-67
2023/07/06 07:41:03;;;;;;;5.25;2.15;;;;;;;;;;5029935;28;20148;-67
2023/07/06 07:43:32;;;;;;;5.43;2.97;;;;;;;;;;5027340;28;20352;-66
2023/07/06 07:46:05;;;;;;;5.88;2.00;;;;;;;;;;5031080;28;20116;-67
2023/07/06 07:48:33;;;;;;;4.22;2.35;;;;;;;;;;5025182;28;20037;-67
2023/07/06 07:51:04;;;;;;;4.50;1.90;;;;;;;;;;5027872;28;20096;-67
2023/07/06 07:53:34;;;;;;;4.95;2.15;;;;;;;;;;5027722;28;20041;-67
2023/07/06 07:56:00;;;;;;;9.82;2.17;;;;;;;;;;5028601;28;20060;-67
2023/07/06 07:58:27;;;;;;;2.67;1.70;;;;;;;;;;5027013;28;20065;-67
2023/07/06 08:00:57;;;;;;;3.47;1.88;;;;;;;;;;5038364;28;20172;-66
2023/07/06 08:03:23;;;;;;;3.42;2.20;;;;;;;;;;5039881;28;20041;-67
2023/07/06 08:05:52;;;;;;;6.35;1.85;;;;;;;;;;5026993;28;20032;-67
2023/07/06 08:08:19;;;;;;;7.25;2.70;;;;;;;;;;5028547;28;20120;-67
2023/07/06 08:10:45;;;;;;;5.45;2.60;;;;;;;;;;5026700;28;20498;-67
2023/07/06 08:13:11;;;;;;;2.65;1.73;;;;;;;;;;5027849;28;20045;-67
2023/07/06 08:15:38;;;;;;;5.72;1.90;;;;;;;;;;5029528;28;20061;-67
2023/07/06 08:18:06;;;;;;;3.25;2.13;;;;;;;;;;5038482;28;20140;-67
2023/07/06 08:20:35;;;;;;;3.67;1.85;;;;;;;;;;5026711;28;20097;-67
2023/07/06 08:23:02;;;;;;;3.33;1.90;;;;;;;;;;5022902;28;20060;-67
2023/07/06 08:25:29;;;;;;;5.70;2.28;;;;;;;;;;5028559;28;20128;-67
2023/07/06 08:27:58;;;;;;;8.07;2.10;;;;;;;;;;5028415;28;20536;-67
2023/07/06 08:30:24;;;;;;;4.13;2.05;;;;;;;;;;5027240;28;20141;-67
2023/07/06 08:32:51;;;;;;;5.13;1.70;;;;;;;;;;5028182;28;20419;-66
2023/07/06 08:35:20;;;;;;;3.88;1.85;;;;;;;;;;5026980;28;20041;-67
2023/07/06 08:37:46;;;;;;;3.70;2.22;;;;;;;;;;5026655;28;20344;-67
2023/07/06 08:40:14;;;;;;;3.55;2.35;;;;;;;;;;5027057;28;20033;-67
2023/07/06 08:42:47;;;;;;;6.35;2.42;;;;;;;;;;5008855;28;20441;-67
2023/07/06 08:45:24;;;;;;;3.63;2.00;;;;;;;;;;5025480;28;20132;-67
2023/07/06 08:47:51;;;;;;;4.72;1.80;;;;;;;;;;5024341;28;20449;-66
2023/07/06 08:50:22;;;;;;;5.43;1.92;;;;;;;;;;5029692;28;20045;-66
2023/07/06 08:52:48;;;;;;;8.77;2.30;;;;;;;;;;5020597;28;20345;-67
2023/07/06 08:55:16;;;;;;;4.85;2.00;;;;;;;;;;5028068;28;20468;-67
2023/07/06 08:57:45;;;;;;;2.63;1.83;;;;;;;;;;5025916;28;20120;-67
2023/07/06 09:00:23;;;;;;;3.92;1.83;;;;;;;;;;5028780;28;20041;-67
2023/07/06 09:02:50;;;;;;;5.22;2.10;;;;;;;;;;5028767;28;20033;-67
2023/07/06 09:05:17;;;;;;;3.60;1.80;;;;;;;;;;5041946;28;20318;-67
2023/07/06 09:07:44;;;;;;;4.82;1.70;;;;;;;;;;5031576;28;20438;-67
2023/07/06 09:10:14;;;;;;;5.95;2.22;;;;;;;;;;5029779;28;20045;-67
2023/07/06 09:12:40;;;;;;;2.78;1.77;;;;;;;;;;5046046;28;20101;-67
2023/07/06 09:15:08;;;;;;;3.83;1.88;;;;;;;;;;5026120;28;20155;-67
2023/07/06 09:17:35;;;;;;;3.33;1.60;;;;;;;;;;5030210;28;20140;-67
2023/07/06 09:20:05;;;;;;;3.63;1.52;;;;;;;;;;5022823;28;20690;-67
2023/07/06 09:22:31;;;;;;;4.82;2.30;;;;;;;;;;5030494;28;20067;-67
2023/07/06 09:25:00;;;;;;;4.82;1.95;;;;;;;;;;5026872;28;20091;-67
2023/07/06 09:27:26;;;;;;;2.38;1.30;;;;;;;;;;5027229;28;20038;-67
2023/07/06 09:30:05;;;;;;;5.75;1.50;;;;;;;;;;5028114;28;20048;-67
2023/07/06 09:32:32;;;;;;;4.55;2.20;;;;;;;;;;5027022;28;20044;-67
2023/07/06 09:35:21;;;;;;;6.72;1.88;;;;;;;;;;5026673;28;20053;-67
2023/07/06 09:37:48;;;;;;;3.45;1.75;;;;;;;;;;5017993;28;20042;-67
2023/07/06 09:40:14;;;;;;;4.72;1.65;;;;;;;;;;5028601;28;20068;-67
2023/07/06 09:42:41;;;;;;;2.47;1.33;;;;;;;;;;5033029;28;20048;-67
2023/07/06 09:45:25;;;;;;;2.40;1.58;;;;;;;;;;5028977;28;20428;-67
2023/07/06 09:47:56;;;;;;;3.65;1.67;;;;;;;;;;5027873;28;20042;-68
2023/07/06 09:50:24;;;;;;;3.10;1.90;;;;;;;;;;5029649;28;20064;-67
2023/07/06 09:52:51;;;;;;;2.25;1.17;;;;;;;;;;5021180;28;20042;-68
2023/07/06 09:55:20;;;;;;;4.30;1.90;;;;;;;;;;5033465;28;20608;-68
2023/07/06 09:57:49;;;;;;;2.05;1.27;;;;;;;;;;5026568;28;20175;-68
2023/07/06 10:00:17;;;;;;;2.35;1.30;;;;;;;;;;5009844;28;20088;-68
2023/07/06 10:03:14;;;;;;;2.55;1.55;;;19.90;99.40;;;;;;5030907;28;20033;-68
2023/07/06 10:05:59;;;;;;;1.67;1.30;;;;;;;;;;5043986;28;20123;-67
2023/07/06 10:08:48;;;;;;;3.08;1.52;;;;;;;;;;5031493;28;20037;-68
2023/07/06 10:11:21;;;;;;;4.30;1.65;;;;;;;;;;5026087;28;20174;-68
2023/07/06 10:13:55;;;;;;;4.03;1.38;;;;;;;;;;5025509;28;20394;-68
2023/07/06 10:16:32;;;;;;;4.35;1.58;;;;;;;;;;5027257;28;20152;-68
2023/07/06 10:19:21;;;;;;;2.35;1.58;;;;;;;;;;5030771;28;20042;-68
2023/07/06 10:21:56;;;;;;;2.75;1.27;;;;;;;;;;5020904;28;20068;-68
2023/07/06 10:25:00;;;;;;;2.35;1.23;;;;;;;;;;5042571;28;20045;-68
2023/07/06 10:27:30;;;;;;;3.30;1.63;;;;;;;;;;4995586;28;20135;-67
2023/07/06 10:30:00;;;;;;;3.30;1.60;;;;;;;;;;5019269;28;20088;-68
2023/07/06 10:32:47;;;;;;;4.18;1.75;;;;;;;;;;5026556;28;20116;-67
2023/07/06 10:35:15;;;;;;;2.40;1.80;;;;;;;;;;5029278;28;20404;-68
2023/07/06 10:37:42;;;;;;;2.92;1.50;;;;;;;;;;5027515;28;20056;-67
2023/07/06 10:40:24;;;;;;;5.13;1.67;;;;;;;;;;5027562;28;20100;-68
2023/07/06 10:43:07;;;;;;;4.68;1.90;;;;;;;;;;5023974;28;20041;-68
2023/07/06 10:45:35;;;;;;;3.10;1.20;;;;;;;;;;5023334;28;20120;-68
2023/07/06 10:48:13;;;;;;;3.75;1.67;;;;;;;;;;5023684;28;20033;-68
2023/07/06 10:50:45;;;;;;;5.18;1.90;;;;;;;;;;5022979;28;20037;-68
2023/07/06 10:53:46;;;;;;;4.43;1.95;;;;;;;;;;5028694;28;20033;-68
2023/07/06 10:56:12;;;;;;;4.40;2.00;;;;;;;;;;5007845;28;20124;-67
2023/07/06 10:58:57;;;;;;;2.22;1.70;;;;;;;;;;5024608;28;20463;-68
2023/07/06 11:01:29;;;;;;;5.10;2.50;;;;;;;;;;5024636;28;20060;-68
2023/07/06 11:03:56;;;;;;;2.80;1.70;;;;;;;;;;5030788;28;20061;-68
2023/07/06 11:06:37;;;;;;;2.78;1.90;;;;;;;;;;5031843;28;20041;-68
2023/07/06 11:09:09;;;;;;;4.45;1.85;;;;;;;;;;5034975;28;20124;-68
2023/07/06 11:11:35;;;;;;;5.35;1.98;;;;;;;;;;5031420;28;20046;-68
2023/07/06 11:14:20;;;;;;;3.83;1.63;;;;;;;;;;5020837;28;20094;-68
2023/07/06 11:16:57;;;;;;;3.03;1.75;;;;;;;;;;5022918;28;20050;-68
2023/07/06 11:19:27;;;;;;;2.85;1.25;;;;;;;;;;5022933;28;20045;-68
2023/07/06 11:21:55;;;;;;;3.85;1.70;;;;;;;;;;5024326;28;20053;-68
2023/07/06 11:24:24;;;;;;;3.05;2.10;;;;;;;;;;5030749;28;20029;-68
2023/07/06 11:26:57;;;;;;;2.38;1.27;;;;;;;;;;5019036;28;20053;-68
2023/07/06 11:29:30;;;;;;;2.25;1.77;;;;;;;;;;5026944;28;20045;-68
2023/07/06 11:31:59;;;;;;;6.40;1.95;;;;;;;;;;5027775;28;20125;-68
2023/07/06 11:34:34;;;;;;;2.58;1.65;;;;;;;;;;5044308;28;20041;-68
2023/07/06 11:37:00;;;;;;;2.35;1.20;;;;;;;;;;5027973;28;20069;-68
2023/07/06 11:39:30;;;;;;;1.80;1.17;;;;;;;;;;5027100;28;20068;-68
2023/07/06 11:42:03;;;;;;;3.53;1.42;;;;;;;;;;5026094;28;20052;-68
2023/07/06 11:44:36;;;;;;;1.55;0.95;;;;;;;;;;5024043;28;20037;-68
2023/07/06 11:47:02;;;;;;;;;;;;;;;;;;5029912;28;20037;-68
2023/07/06 11:49:47;;;;;;;2.05;1.20;;;;;;;;;;5024350;28;19925;-68
2023/07/06 11:52:25;;;;;;;2.75;1.30;;;;;;;;;;5039603;28;20079;-68
2023/07/06 11:58:04;;;;;;;3.08;1.45;;;20.50;98.80;;;;;;5013802;28;20105;-68
2023/07/06 12:02:59;;;;;;;1.20;1.00;;;;;;;;;;5028878;28;20034;-68
2023/07/06 12:05:26;;;;;;;4.78;1.23;;;;;;;;;;5028943;28;20073;-68
2023/07/06 12:08:00;;;;;;;4.72;1.55;;;;;;;;;;5031857;28;20107;-69
2023/07/06 12:10:30;;;;;;;1.85;1.08;;;21.70;97.50;;;;;;5028106;28;20045;-68
2023/07/06 12:12:56;;;;;;;3.35;1.70;;;22.10;96.20;;;;;;5026936;28;20514;-68
2023/07/06 12:15:23;;;;;;;4.95;2.03;;;22.20;96.30;;;;;;5027155;28;20065;-68
2023/07/06 12:17:56;;;;;;;2.03;1.33;;;;;;;;;;5025505;28;20151;-68
2023/07/06 12:20:25;;;;;;;4.10;1.52;;;;;;;;;;5023942;28;20049;-68
2023/07/06 12:22:53;;;;;;;2.58;1.70;;;;;;;;;;5022391;28;20034;-68
2023/07/06 12:25:20;;;;;;;5.00;2.10;;;;;;;;;;5024089;28;20092;-68
2023/07/06 12:27:46;;;;;;;2.65;1.55;;;;;;;;;;5017692;28;20115;-68
2023/07/06 12:30:14;;;;;;;2.55;1.65;;;;;;;;;;5019383;28;20030;-68
2023/07/06 12:32:43;;;;;;;3.20;1.30;;;;;;;;;;5027056;28;20038;-68
2023/07/06 12:35:12;;;;;;;7.28;1.52;;;;;;;;;;5023412;28;20033;-66
2023/07/06 12:37:42;;;;;;;3.63;1.73;;;;;;;;;;5021012;28;20041;-66
2023/07/06 12:40:22;;;;;;;4.25;1.33;;;;;;;;;;5040079;28;20041;-66
2023/07/06 12:42:48;;;;;;;6.40;1.70;;;;;;;;;;5022772;28;20337;-65
2023/07/06 12:45:16;;;;;;;4.47;1.73;;;;;;;;;;5021303;28;20363;-72
2023/07/06 12:47:43;;;;;;;2.30;1.48;;;;;;;;;;5025096;28;20119;-66
2023/07/06 12:50:16;;;;;;;6.13;2.72;;;22.30;96.20;;;;;;5025036;28;20625;-66
2023/07/06 12:52:43;;;;;;;3.97;1.75;;;22.60;92.70;;;;;;5020498;28;20506;-66
2023/07/06 12:55:14;;;;;;;4.63;2.05;;;22.60;92.70;;;;;;5028204;28;20048;-66
2023/07/06 12:57:40;;;;;;;3.35;1.88;;;22.50;92.60;;;;;;5024860;28;20029;-66
2023/07/06 13:00:12;;;;;;;4.50;1.88;;;22.50;92.70;;;;;;5025514;28;20041;-66
2023/07/06 13:02:42;;;;;;;5.13;2.05;;;22.40;92.40;;;;;;5023474;28;20037;-66
2023/07/06 13:05:25;;;;;;;2.88;1.70;;;22.40;92.50;;;;;;5019451;28;20493;-66
2023/07/06 13:07:52;;;;;;;4.15;1.80;;;22.40;92.40;;;;;;5025598;28;20255;-66
2023/07/06 13:10:31;;;;;;;4.53;2.20;;;22.30;92.60;;;;;;5004434;28;20348;-66
2023/07/06 13:12:57;;;;;;;4.93;1.83;;;22.30;92.70;;;;;;5027104;28;20038;-67
2023/07/06 13:15:46;;;;;;;7.88;2.03;;;22.30;93.00;;;;;;5026737;28;20570;-67
2023/07/06 13:18:16;;;;;;;6.82;2.25;;;22.30;93.10;;;;;;5025195;28;20046;-67
2023/07/06 13:20:44;;;;;;;4.07;1.70;;;22.40;92.90;;;;;;5021892;28;20040;-66
2023/07/06 13:23:11;;;;;;;4.13;1.77;;;22.50;93.00;;;;;;5025951;28;20425;-66
2023/07/06 13:25:43;;;;;;;2.40;1.88;;;22.50;92.70;;;;;;5020981;28;20056;-66
2023/07/06 13:28:11;;;;;;;4.10;1.63;;;22.50;92.60;;;;;;5022545;28;20076;-66
2023/07/06 13:30:40;;;;;;;3.03;1.33;;;22.50;92.60;;;;;;5026117;28;20392;-66
2023/07/06 13:33:09;;;;;;;4.32;2.25;;;22.50;92.40;;;;;;5024335;28;20081;-66
2023/07/06 13:35:36;;;;;;;4.43;2.10;;;22.50;92.30;;;;;;5025513;28;20355;-66
2023/07/06 13:38:05;;;;;;;2.60;1.50;;;22.40;92.00;;;;;;5022151;28;20041;-67
2023/07/06 13:40:32;;;;;;;7.00;1.85;;;22.40;91.80;;;;;;5029019;28;20455;-67
2023/07/06 13:43:01;;;;;;;2.33;1.60;;;;;;;;;;5028130;28;20183;-66
2023/07/06 13:45:32;;;;;;;3.33;1.48;;;;;;;;;;5029568;28;20041;-66
2023/07/06 13:47:58;;;;;;;2.15;1.58;;;;;;;;;;5022801;28;20119;-66
2023/07/06 13:50:25;;;;;;;3.70;1.52;;;;;;;;;;5029974;28;20171;-66
2023/07/06 13:52:52;;;;;;;2.47;1.55;;;;;;;;;;5026848;28;20053;-66
2023/07/06 13:55:43;;;;;;;4.30;1.60;;;;;;;;;;5031459;28;20049;-66
2023/07/06 13:58:11;;;;;;;3.42;2.08;;;;;;;;;;5031865;28;20119;-66
2023/07/06 14:00:37;;;;;;;3.10;1.38;;;;;;;;;;5031566;28;20073;-66
2023/07/06 14:03:03;;;;;;;5.47;1.58;;;;;;;;;;5032292;28;20163;-66
2023/07/06 14:05:30;;;;;;;7.20;1.92;;;;;;;;;;5032031;28;20050;-67
2023/07/06 14:07:56;;;;;;;3.05;1.73;;;;;;;;;;5047267;28;20052;-67
2023/07/06 14:10:23;;;;;;;4.47;2.10;;;;;;;;;;5030484;28;20045;-66
2023/07/06 14:12:49;;;;;;;4.50;2.00;;;;;;;;;;5031413;28;20045;-66
2023/07/06 14:15:18;;;;;;;3.83;1.73;;;;;;;;;;5030116;28;20212;-66
2023/07/06 14:17:44;;;;;;;5.07;1.95;;;22.30;91.60;;;;;;5030904;28;20142;-66
2023/07/06 14:20:12;;;;;;;3.60;1.83;;;22.50;91.70;;;;;;5042015;28;20042;-66
2023/07/06 14:22:38;;;;;;;7.38;2.00;;;22.50;91.70;;;;;;5027143;28;20059;-65
2023/07/06 14:25:33;;;;;;;4.35;1.90;;;22.50;91.60;;;;;;5028992;28;20037;-66
2023/07/06 14:27:58;;;;;;;2.53;1.80;;;22.50;91.40;;;;;;5031064;28;20372;-67
2023/07/06 14:30:27;;;;;;;5.35;1.80;;;22.50;91.40;;;;;;5022624;28;20060;-66
2023/07/06 14:32:53;;;;;;;4.38;1.83;;;22.50;91.30;;;;;;5031349;28;20045;-67
2023/07/06 14:35:19;;;;;;;3.85;1.80;;;22.50;91.10;;;;;;5028778;28;20051;-66
2023/07/06 14:37:47;;;;;;;6.57;2.08;;;22.40;91.00;;;;;;5029615;28;20041;-66
2023/07/06 14:40:13;;;;;;;5.13;3.25;;;22.50;91.00;;;;;;5029327;28;20190;-66
2023/07/06 14:42:39;;;;;;;4.40;2.30;;;22.40;90.80;;;;;;5028847;28;20286;-67
2023/07/06 14:45:06;;;;;;;12.90;2.67;;;22.40;91.00;;;;;;5024308;28;20065;-66